Time;durP1;ratioP1;P1;durP2;ratioP2;P2;SDS_P1;SDS_P2;PMS_P1;PMS_P2;Temp;Humidity;BMP_temperature;BMP_pressure;BME280_temperature;BME280_humidity;BME280_pressure;Samples;Min_cycle;Max_cycle;Signal;HPM_P1;HPM_P2
2022/03/22 00:00:25;;;;;;;31.63;20.73;;;5.80;60.80;;;;;;5093695;28;20234;-72
2022/03/22 00:02:53;;;;;;;33.95;22.42;;;5.80;60.90;;;;;;5093662;28;20631;-72
2022/03/22 00:05:21;;;;;;;32.90;20.95;;;5.80;61.00;;;;;;5096746;28;20227;-72
2022/03/22 00:07:49;;;;;;;30.70;21.00;;;5.70;61.00;;;;;;5098083;28;20206;-74
2022/03/22 00:10:17;;;;;;;30.40;19.40;;;5.70;61.20;;;;;;5095731;28;20202;-72
2022/03/22 00:12:49;;;;;;;33.95;19.77;;;5.70;61.30;;;;;;5096762;28;20229;-71
2022/03/22 00:15:17;;;;;;;37.45;21.23;;;5.70;61.30;;;;;;5101273;28;20186;-71
2022/03/22 00:18:05;;;;;;;42.10;26.63;;;5.80;61.40;;;;;;5097894;28;20637;-72
2022/03/22 00:20:35;;;;;;;42.75;26.48;;;5.80;61.50;;;;;;5096077;28;20203;-70
2022/03/22 00:23:03;;;;;;;33.42;22.02;;;5.80;61.40;;;;;;5097551;28;20253;-70
2022/03/22 00:25:31;;;;;;;37.63;24.65;;;5.80;61.30;;;;;;5095912;28;20676;-73
2022/03/22 00:28:01;;;;;;;31.65;21.90;;;5.70;61.10;;;;;;5097917;28;20191;-72
2022/03/22 00:30:31;;;;;;;36.78;22.63;;;5.70;61.20;;;;;;5091905;27;20313;-72
2022/03/22 00:33:03;;;;;;;35.15;22.70;;;5.60;61.20;;;;;;5094845;28;20214;-72
2022/03/22 00:35:36;;;;;;;41.78;21.92;;;5.50;61.30;;;;;;5097597;28;20251;-72
2022/03/22 00:38:07;;;;;;;35.28;22.10;;;5.50;61.40;;;;;;5098822;28;20603;-72
2022/03/22 00:40:36;;;;;;;40.45;22.13;;;5.40;61.40;;;;;;5094837;28;20698;-72
2022/03/22 00:43:06;;;;;;;31.05;19.45;;;5.40;61.50;;;;;;5079144;28;20227;-72
2022/03/22 00:45:36;;;;;;;32.80;19.13;;;5.40;61.50;;;;;;5098439;28;20234;-72
2022/03/22 00:48:06;;;;;;;40.58;25.17;;;5.30;61.50;;;;;;5094636;28;20278;-73
2022/03/22 00:50:37;;;;;;;39.33;24.08;;;5.30;61.50;;;;;;5090401;28;20207;-71
2022/03/22 00:53:08;;;;;;;37.38;21.58;;;5.30;61.60;;;;;;5098400;28;20727;-72
2022/03/22 00:55:40;;;;;;;34.67;21.35;;;5.20;61.60;;;;;;5095618;28;20206;-70
2022/03/22 00:58:09;;;;;;;31.63;22.08;;;5.20;61.60;;;;;;5098453;28;20767;-73
2022/03/22 01:00:38;;;;;;;37.30;22.67;;;5.10;61.80;;;;;;5097050;28;20239;-73
2022/03/22 01:03:07;;;;;;;53.47;27.92;;;5.10;61.90;;;;;;5095363;28;20223;-72
2022/03/22 01:05:37;;;;;;;47.15;25.38;;;5.10;62.00;;;;;;5094606;28;20202;-73
2022/03/22 01:08:07;;;;;;;91.63;42.55;;;5.10;62.10;;;;;;5096897;28;20213;-73
2022/03/22 01:10:37;;;;;;;58.10;29.08;;;5.10;62.10;;;;;;5096400;28;20664;-71
2022/03/22 01:13:08;;;;;;;45.85;26.30;;;5.00;62.10;;;;;;5095945;28;20219;-73
2022/03/22 01:15:42;;;;;;;31.70;20.73;;;5.00;62.10;;;;;;5079099;28;20233;-70
2022/03/22 01:18:13;;;;;;;31.48;19.90;;;5.00;62.10;;;;;;5094390;28;20843;-73
2022/03/22 01:20:43;;;;;;;43.95;24.42;;;4.90;62.10;;;;;;5095585;28;20203;-72
2022/03/22 01:23:12;;;;;;;56.20;31.63;;;4.90;62.20;;;;;;5090394;28;20284;-71
2022/03/22 01:25:41;;;;;;;46.58;24.95;;;4.90;62.20;;;;;;5099370;28;20215;-71
2022/03/22 01:28:12;;;;;;;34.60;22.27;;;4.80;62.30;;;;;;5101154;28;20233;-73
2022/03/22 01:30:42;;;;;;;39.65;21.67;;;4.80;62.40;;;;;;5097765;28;20242;-72
2022/03/22 01:33:12;;;;;;;35.65;22.30;;;4.80;62.40;;;;;;5098823;28;20234;-73
2022/03/22 01:35:41;;;;;;;40.22;23.38;;;4.80;62.40;;;;;;5099615;28;20214;-72
2022/03/22 01:38:09;;;;;;;40.85;24.70;;;4.80;62.60;;;;;;5100006;28;20211;-72
2022/03/22 01:40:38;;;;;;;52.72;29.27;;;4.90;62.60;;;;;;5097564;28;20202;-71
2022/03/22 01:43:06;;;;;;;55.80;29.98;;;4.90;62.60;;;;;;5100960;28;20226;-70
2022/03/22 01:45:35;;;;;;;34.65;19.90;;;5.00;62.60;;;;;;5095539;28;20303;-74
2022/03/22 01:48:06;;;;;;;91.38;42.85;;;5.00;62.60;;;;;;5102605;28;20196;-73
2022/03/22 01:50:35;;;;;;;54.45;30.25;;;5.00;62.40;;;;;;5097438;28;20634;-72
2022/03/22 01:53:04;;;;;;;45.17;24.10;;;4.90;62.30;;;;;;5098481;28;20234;-71
2022/03/22 01:55:32;;;;;;;62.67;32.80;;;4.90;62.30;;;;;;5091256;28;20677;-71
2022/03/22 01:58:00;;;;;;;29.40;20.58;;;4.80;62.30;;;;;;5095812;28;20227;-73
2022/03/22 02:00:28;;;;;;;26.83;18.15;;;4.70;62.40;;;;;;5084318;28;20254;-71
2022/03/22 02:05:55;;;;;;;38.85;23.30;;;4.60;62.40;;;;;;5102144;28;20241;-73
2022/03/22 02:08:27;;;;;;;41.85;24.02;;;4.60;62.60;;;;;;5101244;28;20216;-73
2022/03/22 02:10:56;;;;;;;40.30;24.33;;;4.50;62.60;;;;;;5098094;28;20703;-71
2022/03/22 02:13:24;;;;;;;37.63;22.35;;;4.50;62.70;;;;;;5095051;28;20368;-71
2022/03/22 02:15:55;;;;;;;41.22;23.05;;;4.50;62.70;;;;;;5098403;28;20222;-72
2022/03/22 02:18:25;;;;;;;41.60;23.77;;;4.40;62.70;;;;;;5097556;28;20214;-71
2022/03/22 02:20:55;;;;;;;43.13;23.13;;;4.40;62.70;;;;;;5102182;28;20244;-69
2022/03/22 02:23:36;;;;;;;39.28;22.08;;;4.30;62.80;;;;;;5098451;28;20223;-73
2022/03/22 02:26:05;;;;;;;31.65;19.40;;;4.30;62.90;;;;;;5099062;28;20206;-70
2022/03/22 02:28:32;;;;;;;31.67;20.13;;;4.30;63.00;;;;;;5100695;28;21086;-71
2022/03/22 02:31:01;;;;;;;32.10;20.45;;;4.30;63.00;;;;;;5107771;28;20229;-71
2022/03/22 02:33:29;;;;;;;31.55;18.70;;;4.30;63.10;;;;;;5100980;28;20214;-72
2022/03/22 02:35:57;;;;;;;27.55;17.75;;;4.30;63.20;;;;;;5093095;28;20198;-71
2022/03/22 02:38:24;;;;;;;25.88;16.90;;;4.40;63.30;;;;;;5086684;28;20223;-71
2022/03/22 02:40:54;;;;;;;30.88;18.02;;;4.40;63.40;;;;;;5096178;28;20260;-71
2022/03/22 02:43:22;;;;;;;29.05;18.42;;;4.50;63.30;;;;;;5101333;28;20301;-71
2022/03/22 02:45:50;;;;;;;32.80;19.85;;;4.50;63.20;;;;;;5095480;28;20246;-74
2022/03/22 02:48:19;;;;;;;32.58;19.35;;;4.50;63.00;;;;;;5078618;28;20201;-71
2022/03/22 02:50:46;;;;;;;26.52;18.10;;;4.40;62.80;;;;;;5094901;28;20206;-70
2022/03/22 02:53:15;;;;;;;36.35;22.55;;;4.30;62.90;;;;;;5096804;28;20232;-72
2022/03/22 02:55:43;;;;;;;38.00;22.45;;;4.30;63.00;;;;;;5094456;28;20203;-70
2022/03/22 02:58:12;;;;;;;45.60;24.95;;;4.20;63.10;;;;;;5095140;28;20271;-71
2022/03/22 03:00:40;;;;;;;32.10;19.23;;;4.20;63.20;;;;;;5097851;28;20226;-72
2022/03/22 03:03:08;;;;;;;92.90;42.63;;;4.30;63.30;;;;;;5096796;28;20695;-70
2022/03/22 03:05:37;;;;;;;65.75;34.08;;;4.30;63.20;;;;;;5096046;28;21064;-71
2022/03/22 03:08:06;;;;;;;39.55;23.55;;;4.30;63.20;;;;;;5101956;28;21361;-71
2022/03/22 03:10:35;;;;;;;39.20;21.70;;;4.30;63.10;;;;;;5095932;28;20261;-70
2022/03/22 03:13:04;;;;;;;27.45;18.98;;;4.20;63.10;;;;;;5098697;28;20250;-74
2022/03/22 03:15:34;;;;;;;31.65;19.23;;;4.20;63.20;;;;;;5099048;28;20231;-70
2022/03/22 03:18:02;;;;;;;30.95;20.80;;;4.20;63.10;;;;;;5093916;28;20276;-71
2022/03/22 03:20:30;;;;;;;37.08;21.40;;;4.20;63.30;;;;;;5097481;28;20676;-70
2022/03/22 03:22:58;;;;;;;34.88;20.40;;;4.20;63.40;;;;;;5098113;28;20218;-73
2022/03/22 03:25:27;;;;;;;29.00;18.63;;;4.30;63.40;;;;;;5081527;28;20214;-72
2022/03/22 03:27:55;;;;;;;31.60;18.40;;;4.30;63.40;;;;;;5097939;28;20855;-73
2022/03/22 03:30:23;;;;;;;27.38;18.15;;;4.30;63.30;;;;;;5101335;28;20603;-73
2022/03/22 03:32:53;;;;;;;28.80;18.17;;;4.30;63.30;;;;;;5100407;28;20696;-73
2022/03/22 03:35:20;;;;;;;29.88;20.13;;;4.30;63.20;;;;;;5096455;28;20211;-72
2022/03/22 03:37:48;;;;;;;33.22;18.70;;;4.30;63.20;;;;;;5081122;28;20239;-72
2022/03/22 03:40:17;;;;;;;35.05;19.38;;;4.30;63.20;;;;;;5099657;27;20599;-71
2022/03/22 03:42:45;;;;;;;32.20;18.88;;;4.20;63.20;;;;;;5099212;28;20232;-72
2022/03/22 03:48:01;;;;;;;28.30;17.85;;;4.20;63.10;;;;;;5081314;28;21020;-72
2022/03/22 03:50:29;;;;;;;31.35;19.50;;;4.20;63.10;;;;;;5097546;28;20714;-72
2022/03/22 03:52:57;;;;;;;34.08;19.15;;;4.20;63.10;;;;;;5097776;28;20223;-72
2022/03/22 03:55:25;;;;;;;31.70;18.70;;;4.20;63.10;;;;;;5100600;28;20233;-70
2022/03/22 03:57:53;;;;;;;30.63;18.60;;;4.10;63.00;;;;;;5099608;28;20241;-70
2022/03/22 04:00:23;;;;;;;32.25;19.27;;;4.10;63.00;;;;;;5098460;28;20223;-72
2022/03/22 04:02:53;;;;;;;31.58;19.30;;;4.10;63.10;;;;;;5098790;28;20246;-72
2022/03/22 04:05:23;;;;;;;38.45;22.25;;;4.00;63.00;;;;;;5091635;28;20294;-72
2022/03/22 04:07:51;;;;;;;35.83;20.88;;;4.00;63.00;;;;;;5096266;28;20679;-72
2022/03/22 04:10:19;;;;;;;30.45;19.30;;;4.00;63.00;;;;;;5093920;28;20659;-73
2022/03/22 04:12:47;;;;;;;38.75;20.90;;;3.90;63.10;;;;;;5096284;28;20907;-72
2022/03/22 04:15:15;;;;;;;30.52;17.85;;;3.80;63.10;;;;;;5100117;28;20202;-72
2022/03/22 04:17:43;;;;;;;33.05;19.95;;;3.80;63.20;;;;;;5097577;28;20247;-71
2022/03/22 04:20:12;;;;;;;27.58;17.33;;;3.80;63.30;;;;;;5097106;28;20286;-71
2022/03/22 04:22:42;;;;;;;30.90;18.98;;;3.80;63.20;;;;;;5097164;28;20257;-71
2022/03/22 04:25:10;;;;;;;31.15;19.30;;;3.70;63.20;;;;;;5095503;28;20207;-71
2022/03/22 04:33:09;;;;;;;45.00;25.80;;;3.60;63.20;;;;;;5091986;28;20234;-71
2022/03/22 04:35:37;;;;;;;70.75;31.45;;;3.50;63.20;;;;;;5093574;28;20203;-71
2022/03/22 04:38:07;;;;;;;69.07;33.05;;;3.50;63.40;;;;;;5092286;28;20191;-71
2022/03/22 04:40:35;;;;;;;34.25;19.98;;;3.40;63.40;;;;;;5094752;28;20191;-71
2022/03/22 04:43:05;;;;;;;27.67;19.00;;;3.40;63.40;;;;;;5093844;28;20217;-72
2022/03/22 04:45:34;;;;;;;30.20;19.50;;;3.40;63.60;;;;;;5093895;28;20259;-72
2022/03/22 04:48:02;;;;;;;26.63;18.58;;;3.40;63.60;;;;;;5096127;28;20199;-72
2022/03/22 04:50:30;;;;;;;27.02;17.95;;;3.50;63.60;;;;;;5093995;28;20214;-72
2022/03/22 04:58:34;;;;;;;31.35;19.50;;;3.30;63.50;;;;;;5091399;28;20287;-72
2022/03/22 05:01:03;;;;;;;34.28;22.65;;;3.30;63.70;;;;;;5091126;28;20280;-72
2022/03/22 05:03:32;;;;;;;37.70;21.88;;;3.20;63.70;;;;;;5096902;28;20253;-73
2022/03/22 05:08:47;;;;;;;30.40;19.60;;;3.20;63.80;;;;;;5074489;28;20604;-72
2022/03/22 05:11:16;;;;;;;28.48;18.10;;;3.10;63.80;;;;;;5074587;28;20196;-72
2022/03/22 05:13:45;;;;;;;36.25;19.50;;;3.10;63.90;;;;;;5072289;28;20681;-73
2022/03/22 05:16:12;;;;;;;27.58;18.83;;;3.10;63.90;;;;;;5074610;28;20261;-72
2022/03/22 05:18:40;;;;;;;36.50;19.88;;;3.10;64.00;;;;;;5075489;28;20961;-72
2022/03/22 05:21:08;;;;;;;33.53;20.15;;;3.10;64.00;;;;;;5076181;28;20273;-71
2022/03/22 05:23:37;;;;;;;30.20;18.73;;;3.10;64.00;;;;;;5073852;28;20976;-73
2022/03/22 05:26:05;;;;;;;29.17;18.35;;;3.10;64.10;;;;;;5073610;28;20218;-71
2022/03/22 05:28:34;;;;;;;29.00;20.73;;;3.20;64.10;;;;;;5073890;28;20219;-71
2022/03/22 05:31:02;;;;;;;28.42;19.65;;;3.20;64.10;;;;;;5078353;28;20218;-72
2022/03/22 05:33:30;;;;;;;35.17;20.90;;;3.10;64.00;;;;;;5080528;28;20216;-72
2022/03/22 05:35:59;;;;;;;36.95;21.50;;;3.10;64.10;;;;;;5085498;28;20203;-71
2022/03/22 05:38:27;;;;;;;33.20;20.90;;;3.10;64.10;;;;;;5091060;28;20259;-71
2022/03/22 05:40:56;;;;;;;30.42;19.45;;;3.10;64.30;;;;;;5088180;28;20207;-72
2022/03/22 05:43:24;;;;;;;32.40;20.45;;;3.20;64.40;;;;;;5078925;28;20248;-71
2022/03/22 05:45:54;;;;;;;41.92;25.50;;;3.20;64.30;;;;;;5072344;28;20236;-72
2022/03/22 05:48:24;;;;;;;40.63;24.75;;;3.20;64.40;;;;;;5056395;28;20211;-73
2022/03/22 05:50:52;;;;;;;35.83;22.48;;;3.20;64.40;;;;;;5076832;28;20668;-71
2022/03/22 05:53:20;;;;;;;34.58;21.73;;;3.20;64.40;;;;;;5071160;28;20720;-71
2022/03/22 05:55:49;;;;;;;36.08;20.67;;;3.20;64.30;;;;;;5080132;28;20222;-71
2022/03/22 05:58:17;;;;;;;30.45;20.63;;;3.20;64.50;;;;;;5073050;28;20281;-72
2022/03/22 06:00:45;;;;;;;38.08;20.27;;;3.20;64.50;;;;;;5075709;28;20247;-71
2022/03/22 06:03:15;;;;;;;31.05;20.38;;;3.20;64.50;;;;;;5075533;28;20356;-71
2022/03/22 06:05:43;;;;;;;38.53;22.92;;;3.20;64.60;;;;;;5074537;28;20215;-71
2022/03/22 06:08:11;;;;;;;48.85;23.33;;;3.20;64.50;;;;;;5062247;28;20204;-71
2022/03/22 06:10:39;;;;;;;37.28;23.10;;;3.20;64.60;;;;;;5079340;28;20293;-73
2022/03/22 06:13:07;;;;;;;44.75;25.15;;;3.20;64.60;;;;;;5072569;28;20220;-71
2022/03/22 06:15:35;;;;;;;43.28;25.42;;;3.20;64.80;;;;;;5071244;28;20240;-73
2022/03/22 06:18:04;;;;;;;45.50;26.17;;;3.20;64.90;;;;;;5079773;28;20223;-73
2022/03/22 06:20:35;;;;;;;37.15;24.55;;;3.20;65.00;;;;;;5079965;28;20219;-72
2022/03/22 06:23:05;;;;;;;71.40;38.70;;;3.20;65.00;;;;;;5077827;28;20231;-72
2022/03/22 06:25:34;;;;;;;45.80;26.65;;;3.30;65.10;;;;;;5080623;28;20211;-72
2022/03/22 06:28:04;;;;;;;43.53;26.08;;;3.30;65.20;;;;;;5078322;28;20192;-72
2022/03/22 06:30:33;;;;;;;44.22;25.27;;;3.30;65.30;;;;;;5075890;28;20239;-71
2022/03/22 06:33:07;;;;;;;47.47;26.00;;;3.40;65.40;;;;;;5076193;28;20274;-73
2022/03/22 06:35:37;;;;;;;50.17;33.13;;;3.50;65.60;;;;;;5075318;28;20659;-73
2022/03/22 06:38:05;;;;;;;40.03;26.67;;;3.60;65.70;;;;;;5077868;28;20834;-71
2022/03/22 06:40:34;;;;;;;45.42;30.55;;;3.60;65.70;;;;;;5079414;28;21019;-73
2022/03/22 06:43:06;;;;;;;46.05;30.42;;;3.70;65.70;;;;;;5080832;28;20219;-73
2022/03/22 06:45:36;;;;;;;44.17;30.27;;;3.70;65.80;;;;;;5072919;28;20232;-73
2022/03/22 06:48:05;;;;;;;48.13;29.10;;;3.80;65.90;;;;;;5072362;28;20192;-72
2022/03/22 06:50:34;;;;;;;54.90;30.17;;;3.90;66.00;;;;;;5075607;28;20549;-73
2022/03/22 06:53:05;;;;;;;47.95;30.85;;;4.00;66.00;;;;;;5080542;28;20909;-72
2022/03/22 06:55:34;;;;;;;48.22;32.70;;;4.20;66.10;;;;;;5067365;28;20311;-73
2022/03/22 06:58:03;;;;;;;50.25;32.88;;;4.30;66.10;;;;;;5076950;28;20921;-71
2022/03/22 07:00:32;;;;;;;47.65;31.40;;;4.40;66.20;;;;;;5073566;28;20244;-72
2022/03/22 07:03:02;;;;;;;47.35;28.80;;;4.50;66.10;;;;;;5078007;28;20700;-72
2022/03/22 07:05:31;;;;;;;45.15;29.65;;;4.60;66.20;;;;;;5073153;28;20203;-71
2022/03/22 07:07:59;;;;;;;42.92;27.35;;;4.70;66.20;;;;;;5077096;28;20238;-71
2022/03/22 07:10:30;;;;;;;39.35;26.58;;;4.80;66.30;;;;;;5079627;28;20196;-71
2022/03/22 07:13:01;;;;;;;42.83;25.80;;;4.90;66.10;;;;;;5078871;28;20300;-72
2022/03/22 07:15:33;;;;;;;38.55;25.20;;;5.00;66.10;;;;;;5073326;28;20258;-72
2022/03/22 07:18:02;;;;;;;48.20;25.25;;;5.10;66.10;;;;;;5081074;28;20203;-72
2022/03/22 07:20:30;;;;;;;48.55;27.30;;;5.20;66.10;;;;;;5078624;28;20210;-72
2022/03/22 07:22:59;;;;;;;41.03;24.67;;;5.30;66.10;;;;;;5075278;28;20234;-71
2022/03/22 07:25:29;;;;;;;48.80;25.50;;;5.30;66.20;;;;;;5078102;28;20214;-72
2022/03/22 07:27:57;;;;;;;44.65;26.95;;;5.50;66.20;;;;;;5071284;28;20200;-71
2022/03/22 07:30:25;;;;;;;43.45;27.77;;;5.50;66.00;;;;;;5074173;28;20243;-71
2022/03/22 07:32:55;;;;;;;52.88;28.40;;;5.60;65.90;;;;;;5077561;28;20253;-71
2022/03/22 07:35:23;;;;;;;39.03;24.02;;;5.60;65.90;;;;;;5075633;28;20573;-72
2022/03/22 07:37:52;;;;;;;37.65;21.23;;;5.70;66.00;;;;;;5075685;28;20616;-72
2022/03/22 07:40:20;;;;;;;32.22;19.08;;;5.80;65.90;;;;;;5079914;28;20270;-72
2022/03/22 07:42:50;;;;;;;31.88;20.17;;;5.80;66.00;;;;;;5077591;28;20232;-71
2022/03/22 07:45:19;;;;;;;24.90;18.08;;;5.90;66.00;;;;;;5052080;28;20257;-72
2022/03/22 07:47:47;;;;;;;33.13;19.33;;;6.00;66.00;;;;;;5075830;28;20199;-73
2022/03/22 07:53:06;;;;;;;31.80;18.50;;;6.20;65.60;;;;;;5075578;28;20220;-73
2022/03/22 07:55:37;;;;;;;27.10;17.73;;;6.30;65.60;;;;;;5076481;28;20210;-72
2022/03/22 07:58:07;;;;;;;26.98;15.60;;;6.40;65.40;;;;;;5075611;28;20211;-72
2022/03/22 08:00:37;;;;;;;21.83;14.38;;;6.50;65.30;;;;;;5076023;28;20239;-72
2022/03/22 08:03:09;;;;;;;23.33;16.60;;;6.60;65.00;;;;;;5076126;28;20228;-72
2022/03/22 08:05:39;;;;;;;26.35;16.65;;;6.60;65.20;;;;;;5078633;28;20204;-73
2022/03/22 08:08:07;;;;;;;23.75;15.80;;;6.70;65.10;;;;;;5079272;28;20202;-72
2022/03/22 08:10:56;;;;;;;21.88;15.38;;;6.80;64.50;;;;;;5077125;28;20612;-72
2022/03/22 08:13:26;;;;;;;20.60;14.43;;;7.00;64.40;;;;;;5077224;28;20215;-73
2022/03/22 08:15:54;;;;;;;21.73;14.25;;;7.00;64.10;;;;;;5077078;28;20957;-72
2022/03/22 08:18:23;;;;;;;21.63;13.43;;;7.20;63.80;;;;;;5075743;28;20211;-73
2022/03/22 08:20:51;;;;;;;26.95;16.48;;;7.20;63.30;;;;;;5074890;28;20226;-73
2022/03/22 08:23:19;;;;;;;22.92;14.32;;;7.30;63.20;;;;;;5074046;28;20242;-73
2022/03/22 08:25:49;;;;;;;27.80;14.77;;;7.40;62.60;;;;;;5077196;28;20616;-72
2022/03/22 08:28:18;;;;;;;20.70;14.57;;;7.50;61.90;;;;;;5077337;28;20464;-73
2022/03/22 08:30:47;;;;;;;31.08;18.08;;;7.60;62.40;;;;;;5072302;28;20247;-73
2022/03/22 08:33:17;;;;;;;22.30;14.82;;;7.60;62.30;;;;;;5076455;28;20807;-72
2022/03/22 08:35:47;;;;;;;24.10;14.23;;;7.70;61.70;;;;;;5077732;28;20675;-72
2022/03/22 08:38:16;;;;;;;20.43;14.27;;;7.80;61.20;;;;;;5072752;28;20439;-72
2022/03/22 08:40:44;;;;;;;25.57;15.00;;;7.80;61.30;;;;;;5072068;28;20470;-72
2022/03/22 08:43:12;;;;;;;21.57;13.93;;;7.90;61.10;;;;;;5074270;28;20530;-72
2022/03/22 08:45:40;;;;;;;28.85;17.02;;;7.90;61.10;;;;;;5076601;28;20473;-72
2022/03/22 08:48:11;;;;;;;23.93;14.70;;;8.00;61.10;;;;;;5075766;28;20260;-72
2022/03/22 08:50:42;;;;;;;22.50;13.90;;;8.10;60.90;;;;;;5077050;28;20464;-72
2022/03/22 08:53:10;;;;;;;23.37;12.57;;;8.20;60.40;;;;;;5077849;28;20338;-72
2022/03/22 08:55:44;;;;;;;20.95;13.70;;;8.30;60.10;;;;;;5064469;28;20452;-72
2022/03/22 08:58:12;;;;;;;20.17;12.73;;;8.30;59.00;;;;;;5084999;28;20218;-72
2022/03/22 09:00:41;;;;;;;19.80;13.10;;;8.40;59.00;;;;;;5081330;28;21108;-73
2022/03/22 09:03:11;;;;;;;19.23;12.00;;;8.50;58.70;;;;;;5081854;28;20463;-72
2022/03/22 09:08:25;;;;;;;22.17;14.57;;;8.60;58.50;;;;;;5074352;28;20934;-71
2022/03/22 09:10:53;;;;;;;21.03;13.10;;;8.70;58.20;;;;;;5075089;28;20456;-71
2022/03/22 09:13:22;;;;;;;25.60;14.40;;;8.80;57.30;;;;;;5072106;28;20989;-70
2022/03/22 09:15:53;;;;;;;25.90;14.83;;;8.80;57.60;;;;;;5074527;28;20470;-73
2022/03/22 09:18:22;;;;;;;30.80;14.40;;;8.90;57.30;;;;;;5076568;28;20548;-73
2022/03/22 09:20:50;;;;;;;25.27;13.33;;;8.90;57.10;;;;;;5077040;28;20569;-72
2022/03/22 09:23:19;;;;;;;18.37;11.70;;;9.00;56.70;;;;;;5075965;28;20477;-72
2022/03/22 09:25:48;;;;;;;25.20;12.60;;;9.00;56.50;;;;;;5076858;28;20450;-73
2022/03/22 09:28:16;;;;;;;24.87;12.63;;;9.10;56.70;;;;;;5074943;28;20469;-73
2022/03/22 09:30:48;;;;;;;27.07;12.13;;;9.20;56.30;;;;;;5073819;28;20844;-71
2022/03/22 09:33:17;;;;;;;17.80;12.43;;;9.20;56.10;;;;;;5078765;28;21017;-72
2022/03/22 09:35:47;;;;;;;20.33;12.83;;;9.30;56.00;;;;;;5075439;28;20455;-72
2022/03/22 09:38:17;;;;;;;21.80;13.30;;;9.30;55.70;;;;;;5077341;28;20466;-72
2022/03/22 09:40:45;;;;;;;19.97;13.23;;;9.40;55.80;;;;;;5070655;28;20445;-72
2022/03/22 09:43:13;;;;;;;20.70;12.93;;;9.50;55.80;;;;;;5072938;28;20461;-71
2022/03/22 09:45:45;;;;;;;17.13;12.90;;;9.50;55.10;;;;;;5077461;28;20477;-73
2022/03/22 09:48:16;;;;;;;19.40;12.97;;;9.60;55.00;;;;;;5080893;28;20444;-72
2022/03/22 09:53:31;;;;;;;19.10;13.80;;;9.70;55.10;;;;;;5077489;28;20485;-72
2022/03/22 09:55:59;;;;;;;19.80;14.03;;;9.80;55.10;;;;;;5080773;28;20453;-71
2022/03/22 09:58:26;;;;;;;22.20;14.70;;;9.90;54.80;;;;;;5080307;28;20457;-73
2022/03/22 10:00:55;;;;;;;19.03;12.27;;;10.00;54.50;;;;;;5079331;28;20982;-73
2022/03/22 10:03:26;;;;;;;23.47;12.63;;;10.00;54.20;;;;;;5077047;28;20554;-71
2022/03/22 10:06:01;;;;;;;21.73;13.90;;;10.10;54.40;;;;;;5075577;28;20477;-71
2022/03/22 10:08:30;;;;;;;19.07;12.63;;;10.10;54.50;;;;;;5071620;28;21311;-73
2022/03/22 10:11:01;;;;;;;22.13;13.13;;;10.20;54.10;;;;;;5072861;28;20452;-74
2022/03/22 10:13:33;;;;;;;24.97;15.63;;;10.30;54.00;;;;;;5074640;28;20576;-72
2022/03/22 10:16:03;;;;;;;28.23;17.30;;;10.30;53.80;;;;;;5074593;28;20563;-71
2022/03/22 10:18:34;;;;;;;21.50;12.73;;;10.40;53.70;;;;;;5079142;28;20450;-73
2022/03/22 10:21:04;;;;;;;30.40;13.80;;;10.40;53.90;;;;;;5069109;28;20450;-72
2022/03/22 10:23:33;;;;;;;19.13;13.07;;;10.50;53.90;;;;;;5075596;28;20511;-71
2022/03/22 10:26:06;;;;;;;24.90;14.90;;;10.60;53.80;;;;;;5075543;28;20467;-70
2022/03/22 10:28:35;;;;;;;23.73;14.07;;;10.60;53.70;;;;;;5074968;28;20833;-71
2022/03/22 10:31:04;;;;;;;18.03;13.50;;;10.70;53.70;;;;;;5074294;28;20613;-71
2022/03/22 10:33:32;;;;;;;22.53;13.77;;;10.70;53.50;;;;;;5077689;28;20476;-71
2022/03/22 10:36:14;;;;;;;25.43;15.03;;;10.80;53.00;;;;;;5077781;28;21138;-71
2022/03/22 10:38:52;;;;;;;26.67;14.77;;;10.90;52.90;;;;;;5065678;28;20503;-71
2022/03/22 10:41:26;;;;;;;18.37;13.33;;;10.90;52.90;;;;;;5077844;28;20542;-71
2022/03/22 10:44:06;;;;;;;20.83;12.20;;;11.00;53.00;;;;;;5076237;28;20462;-71
2022/03/22 10:46:35;;;;;;;21.70;13.30;;;11.00;52.80;;;;;;5074973;28;20473;-71
2022/03/22 10:49:06;;;;;;;17.77;12.13;;;11.10;52.30;;;;;;5079323;28;20446;-71
2022/03/22 10:51:40;;;;;;;23.33;13.37;;;11.20;52.60;;;;;;5062485;28;20499;-71
2022/03/22 10:54:09;;;;;;;37.80;19.33;;;11.20;52.40;;;;;;5083878;28;20480;-71
2022/03/22 10:56:37;;;;;;;25.07;14.53;;;11.20;52.50;;;;;;5079564;28;21069;-71
2022/03/22 10:59:05;;;;;;;21.40;12.87;;;11.30;52.00;;;;;;5075867;28;20973;-72
2022/03/22 11:01:33;;;;;;;16.60;12.60;;;11.30;52.10;;;;;;5074529;28;20502;-72
2022/03/22 11:04:04;;;;;;;29.57;17.53;;;11.40;51.70;;;;;;5079150;28;21072;-71
2022/03/22 11:06:33;;;;;;;17.13;12.40;;;11.40;51.70;;;;;;5076865;28;20477;-71
2022/03/22 11:09:03;;;;;;;21.33;12.27;;;11.50;51.80;;;;;;5079410;28;20561;-71
2022/03/22 11:11:32;;;;;;;20.33;13.30;;;11.60;51.40;;;;;;5081066;28;20453;-71
2022/03/22 11:14:01;;;;;;;20.23;12.97;;;11.70;51.40;;;;;;5076680;28;21099;-72
2022/03/22 11:16:31;;;;;;;20.50;13.57;;;11.70;51.30;;;;;;5072145;28;21352;-71
2022/03/22 11:19:00;;;;;;;30.53;18.80;;;11.80;51.30;;;;;;5072983;28;20504;-71
2022/03/22 11:21:29;;;;;;;29.37;20.73;;;11.80;50.90;;;;;;5077774;28;21173;-71
2022/03/22 11:24:07;;;;;;;26.73;14.30;;;11.90;50.90;;;;;;5077638;28;20468;-70
2022/03/22 11:26:41;;;;;;;21.63;13.73;;;12.00;50.70;;;;;;5076639;28;20449;-70
2022/03/22 11:29:11;;;;;;;18.67;12.33;;;12.00;50.60;;;;;;5073582;28;20483;-72
2022/03/22 11:31:41;;;;;;;17.27;13.03;;;12.00;50.70;;;;;;5079547;28;20504;-72
2022/03/22 11:34:09;;;;;;;17.50;11.40;;;12.10;50.00;;;;;;5078928;28;20478;-72
2022/03/22 11:36:43;;;;;;;18.33;13.33;;;12.20;49.80;;;;;;5080676;28;20456;-71
2022/03/22 11:39:18;;;;;;;22.03;12.40;;;12.20;49.80;;;;;;5074329;28;20475;-71
2022/03/22 11:44:38;;;;;;;22.50;13.40;;;12.40;49.50;;;;;;5080133;28;20998;-71
2022/03/22 11:47:09;;;;;;;17.63;12.10;;;12.40;49.80;;;;;;5075374;28;20472;-71
2022/03/22 11:49:52;;;;;;;19.53;12.97;;;12.50;49.70;;;;;;5076185;28;20976;-71
2022/03/22 11:52:22;;;;;;;18.60;12.87;;;12.50;49.50;;;;;;5076526;28;21018;-73
2022/03/22 11:55:00;;;;;;;25.00;14.93;;;12.60;49.40;;;;;;5073169;28;20454;-72
2022/03/22 11:57:40;;;;;;;19.90;12.93;;;12.60;49.30;;;;;;5079365;28;20449;-71
2022/03/22 12:00:08;;;;;;;18.13;12.70;;;12.70;49.20;;;;;;5057696;28;20852;-71
2022/03/22 12:02:39;;;;;;;15.23;11.70;;;12.70;49.10;;;;;;5076352;28;20489;-71
2022/03/22 12:05:08;;;;;;;17.20;12.20;;;12.80;48.90;;;;;;5075161;28;20637;-70
2022/03/22 12:07:38;;;;;;;19.83;14.47;;;12.80;48.90;;;;;;5074627;28;20455;-72
2022/03/22 12:10:11;;;;;;;15.60;11.40;;;12.90;48.90;;;;;;5077766;28;20511;-72
2022/03/22 12:12:40;;;;;;;16.87;11.30;;;12.90;48.40;;;;;;5078927;28;20470;-73
2022/03/22 12:15:10;;;;;;;22.80;14.07;;;13.00;48.30;;;;;;5079831;28;20465;-70
2022/03/22 12:17:39;;;;;;;17.93;11.90;;;13.00;48.20;;;;;;5078972;28;21127;-72
2022/03/22 12:20:11;;;;;;;21.27;12.43;;;13.10;48.20;;;;;;5081194;28;20458;-72
2022/03/22 12:22:41;;;;;;;19.77;12.63;;;13.10;48.20;;;;;;5082078;28;21001;-72
2022/03/22 12:25:12;;;;;;;24.60;15.73;;;13.10;48.20;;;;;;5084176;28;20446;-72
2022/03/22 12:27:50;;;;;;;17.80;11.30;;;13.20;47.80;;;;;;5082177;28;20462;-71
2022/03/22 12:30:20;;;;;;;24.53;15.30;;;13.20;47.60;;;;;;5081727;28;20522;-73
2022/03/22 12:32:50;;;;;;;19.60;12.50;;;13.30;47.90;;;;;;5076615;28;20985;-70
2022/03/22 12:35:18;;;;;;;16.20;11.40;;;13.40;47.80;;;;;;5073059;28;20450;-73
2022/03/22 12:37:48;;;;;;;19.00;12.50;;;13.40;47.70;;;;;;5055044;28;20457;-73
2022/03/22 12:40:18;;;;;;;16.30;10.63;;;13.50;47.70;;;;;;5079128;28;20455;-71
2022/03/22 12:42:47;;;;;;;14.57;10.60;;;13.50;47.30;;;;;;5081888;28;20488;-70
2022/03/22 12:45:15;;;;;;;15.83;11.20;;;13.60;47.10;;;;;;5077725;28;20500;-72
2022/03/22 12:47:44;;;;;;;19.50;12.80;;;13.60;46.80;;;;;;5074243;28;20453;-70
2022/03/22 12:50:14;;;;;;;15.30;11.20;;;13.70;47.00;;;;;;5070339;28;20838;-72
2022/03/22 12:52:42;;;;;;;16.10;11.60;;;13.70;46.70;;;;;;5077308;28;20468;-72
2022/03/22 12:55:12;;;;;;;17.40;11.07;;;13.80;46.70;;;;;;5076025;28;20447;-71
2022/03/22 12:57:46;;;;;;;20.43;12.73;;;13.80;46.50;;;;;;5076259;28;20514;-72
2022/03/22 13:00:27;;;;;;;16.40;11.83;;;13.80;46.40;;;;;;5071487;28;20465;-72
2022/03/22 13:02:56;;;;;;;18.70;13.30;;;13.90;46.10;;;;;;5071727;28;20495;-72
2022/03/22 13:05:27;;;;;;;15.07;10.40;;;13.90;46.20;;;;;;5071928;28;20455;-71
2022/03/22 13:08:17;;;;;;;15.37;11.60;;;13.90;46.00;;;;;;5078287;28;20841;-72
2022/03/22 13:16:24;;;;;;;18.17;11.77;;;14.10;45.80;;;;;;5071629;28;20488;-71
2022/03/22 13:18:54;;;;;;;15.77;11.20;;;14.10;45.60;;;;;;5074983;28;20448;-70
2022/03/22 13:21:23;;;;;;;13.70;11.00;;;14.10;45.60;;;;;;5076688;28;20464;-70